createdAt,value
2022-12-06T00:00:41.234Z,29.27
2022-12-06T00:03:45.024Z,27.30
2022-12-06T00:06:51.443Z,30.15
2022-12-06T00:09:53.718Z,28.58
2022-12-06T00:12:56.070Z,29.80
2022-12-06T00:16:13.210Z,27.33
2022-12-06T00:19:20.741Z,27.60
2022-12-06T00:22:23.093Z,28.27
2022-12-06T00:25:25.425Z,29.05
2022-12-06T00:28:27.830Z,27.65
2022-12-06T00:31:31.017Z,29.17
2022-12-06T00:34:33.388Z,30.67
2022-12-06T00:37:35.791Z,32.75
2022-12-06T00:40:38.046Z,31.17
2022-12-06T00:43:40.435Z,31.15
2022-12-06T00:46:42.714Z,27.80
2022-12-06T00:49:44.987Z,32.58
2022-12-06T00:52:47.483Z,25.67
2022-12-06T00:55:50.200Z,30.00
2022-12-06T00:58:52.604Z,26.60
2022-12-06T01:01:54.918Z,24.47
2022-12-06T01:04:57.210Z,26.38
2022-12-06T01:07:59.748Z,24.48
2022-12-06T01:11:02.576Z,21.05
2022-12-06T01:14:04.851Z,24.75
2022-12-06T01:17:07.184Z,18.37
2022-12-06T01:20:10.163Z,20.88
2022-12-06T01:23:12.693Z,20.80
2022-12-06T01:26:20.119Z,17.05
2022-12-06T01:29:22.872Z,17.50
2022-12-06T01:32:25.200Z,10.70
2022-12-06T01:35:27.563Z,9.68
2022-12-06T01:38:30.114Z,17.77
2022-12-06T01:41:32.587Z,14.93
2022-12-06T01:44:45.552Z,12.50
2022-12-06T01:47:47.842Z,18.13
2022-12-06T01:50:50.191Z,18.73
2022-12-06T01:53:54.071Z,17.63
2022-12-06T01:56:57.734Z,19.20
2022-12-06T02:00:01.135Z,15.00
2022-12-06T02:03:19.212Z,14.23
2022-12-06T02:06:22.203Z,16.23
2022-12-06T02:09:26.770Z,16.02
2022-12-06T02:12:29.089Z,17.27
2022-12-06T02:15:42.516Z,12.85
2022-12-06T02:18:51.380Z,14.63
2022-12-06T02:22:18.657Z,16.63
2022-12-06T02:26:04.556Z,17.88
2022-12-06T02:29:09.704Z,16.48
2022-12-06T02:32:36.898Z,19.77
2022-12-06T02:36:04.884Z,12.40
2022-12-06T02:39:16.809Z,15.02
2022-12-06T02:42:24.841Z,18.13
2022-12-06T02:45:35.550Z,15.57
2022-12-06T02:48:39.289Z,15.02
2022-12-06T02:51:41.921Z,14.37
2022-12-06T02:54:48.039Z,15.02
2022-12-06T02:57:53.194Z,14.25
2022-12-06T03:01:01.610Z,16.30
2022-12-06T03:04:35.079Z,17.83
2022-12-06T03:07:42.891Z,13.27
2022-12-06T03:10:56.109Z,15.82
2022-12-06T03:14:05.512Z,13.45
2022-12-06T03:17:30.889Z,13.75
2022-12-06T03:20:43.091Z,17.58
2022-12-06T03:23:49.182Z,15.00
2022-12-06T03:26:55.573Z,14.60
2022-12-06T03:30:01.966Z,15.20
2022-12-06T03:33:04.925Z,14.30
2022-12-06T03:36:08.629Z,13.52
2022-12-06T03:39:16.324Z,15.17
2022-12-06T03:42:19.562Z,12.10
2022-12-06T03:45:25.476Z,15.07
2022-12-06T03:48:35.198Z,16.05
2022-12-06T03:51:39.729Z,16.98
2022-12-06T03:54:42.622Z,9.63
2022-12-06T03:57:45.092Z,11.88
2022-12-06T04:00:47.710Z,15.43
2022-12-06T04:03:50.517Z,12.18
2022-12-06T04:06:52.971Z,14.10
2022-12-06T04:10:03.346Z,15.73
2022-12-06T04:13:06.339Z,17.13
2022-12-06T04:16:29.251Z,16.27
2022-12-06T04:19:31.741Z,17.08
2022-12-06T04:22:52.361Z,15.68
2022-12-06T04:25:55.037Z,18.80
2022-12-06T04:29:15.826Z,23.42
2022-12-06T04:32:36.291Z,23.95
2022-12-06T04:35:56.902Z,21.45
2022-12-06T04:38:59.451Z,19.13
2022-12-06T04:42:20.654Z,19.63
2022-12-06T04:45:23.018Z,20.15
2022-12-06T04:48:25.450Z,20.33
2022-12-06T04:51:30.624Z,18.50
2022-12-06T04:54:33.524Z,18.13
2022-12-06T04:57:35.877Z,23.83
2022-12-06T05:00:38.433Z,18.70
2022-12-06T05:03:44.150Z,20.75
2022-12-06T05:06:47.223Z,16.95
2022-12-06T05:09:49.469Z,17.00
2022-12-06T05:12:51.760Z,16.37
2022-12-06T05:15:59.704Z,14.02
2022-12-06T05:19:02.055Z,16.63
2022-12-06T05:22:04.268Z,16.00
2022-12-06T05:25:07.146Z,17.63
2022-12-06T05:28:10.370Z,21.23
2022-12-06T05:31:13.486Z,20.63
2022-12-06T05:34:15.845Z,18.63
2022-12-06T05:37:18.417Z,16.02
2022-12-06T05:40:20.772Z,18.80
2022-12-06T05:43:23.016Z,16.13
2022-12-06T05:46:25.312Z,19.77
2022-12-06T05:49:27.645Z,21.33
2022-12-06T05:52:29.970Z,18.88
2022-12-06T05:55:32.572Z,19.13
2022-12-06T05:58:35.469Z,16.67
2022-12-06T06:01:38.070Z,15.48
2022-12-06T06:04:40.401Z,12.32
2022-12-06T06:07:42.829Z,17.17
2022-12-06T06:10:45.941Z,17.95
2022-12-06T06:13:48.220Z,17.23
2022-12-06T06:16:52.289Z,17.23
2022-12-06T06:19:54.601Z,20.45
2022-12-06T06:22:56.908Z,14.23
2022-12-06T06:25:59.211Z,15.05
2022-12-06T06:29:01.465Z,15.50
2022-12-06T06:32:03.770Z,19.77
2022-12-06T06:35:07.881Z,17.42
2022-12-06T06:38:10.268Z,17.55
2022-12-06T06:41:12.773Z,22.30
2022-12-06T06:44:16.508Z,19.73
2022-12-06T06:47:18.746Z,20.55
2022-12-06T06:50:21.020Z,20.83
2022-12-06T06:53:25.010Z,21.83
2022-12-06T06:56:27.338Z,28.90
2022-12-06T06:59:30.373Z,22.63
2022-12-06T07:02:32.714Z,26.65
2022-12-06T07:05:35.019Z,22.83
2022-12-06T07:08:39.313Z,22.80
2022-12-06T07:11:41.664Z,25.35
2022-12-06T07:14:44.028Z,26.87
2022-12-06T07:17:46.270Z,28.75
2022-12-06T07:20:49.718Z,24.63
2022-12-06T07:23:51.924Z,19.33
2022-12-06T07:26:56.816Z,18.80
2022-12-06T07:29:59.718Z,18.13
2022-12-06T07:33:02.449Z,24.45
2022-12-06T07:36:13.333Z,24.20
2022-12-06T07:39:16.196Z,19.55
2022-12-06T07:42:36.917Z,17.70
2022-12-06T07:45:39.171Z,15.47
2022-12-06T07:48:41.461Z,19.50
2022-12-06T07:51:46.903Z,22.75
2022-12-06T07:54:49.293Z,27.98
2022-12-06T07:57:51.491Z,31.88
2022-12-06T08:00:55.364Z,34.53
2022-12-06T08:04:00.721Z,32.50
2022-12-06T08:07:03.107Z,29.33
2022-12-06T08:10:06.370Z,26.60
2022-12-06T08:13:08.809Z,24.23
2022-12-06T08:16:13.571Z,28.13
2022-12-06T08:19:16.732Z,23.70
2022-12-06T08:22:20.435Z,21.17
2022-12-06T08:25:23.305Z,19.55
2022-12-06T08:28:26.069Z,16.85
2022-12-06T08:31:29.494Z,18.97
2022-12-06T08:34:32.012Z,19.23
2022-12-06T08:37:35.059Z,17.73
2022-12-06T08:40:37.295Z,17.25
2022-12-06T08:43:39.538Z,15.32
2022-12-06T08:46:42.259Z,10.73
2022-12-06T08:49:44.499Z,10.73
2022-12-06T08:52:47.509Z,11.70
2022-12-06T08:56:02.334Z,6.82
2022-12-06T08:59:05.909Z,5.75
2022-12-06T09:02:11.499Z,5.57
2022-12-06T09:05:13.781Z,5.28
2022-12-06T09:08:16.176Z,5.22
2022-12-06T09:11:19.360Z,5.18
2022-12-06T09:14:22.592Z,5.35
2022-12-06T09:17:24.903Z,7.10
2022-12-06T09:20:28.490Z,10.60
2022-12-06T09:23:30.719Z,6.93
2022-12-06T09:26:33.440Z,5.50
2022-12-06T09:29:40.780Z,6.70
2022-12-06T09:32:43.489Z,5.43
2022-12-06T09:35:46.073Z,4.32
2022-12-06T09:38:54.612Z,4.18
2022-12-06T09:42:18.377Z,4.55
2022-12-06T09:45:29.789Z,4.18
2022-12-06T09:48:49.045Z,3.23
2022-12-06T09:52:10.165Z,4.13
2022-12-06T09:55:37.430Z,4.88
2022-12-06T09:58:39.703Z,3.47
2022-12-06T10:01:56.976Z,4.57
2022-12-06T10:05:24.115Z,3.77
2022-12-06T10:08:26.529Z,3.78
2022-12-06T10:11:37.984Z,3.28
2022-12-06T10:15:01.484Z,3.80
2022-12-06T10:18:34.861Z,3.13
2022-12-06T10:21:37.109Z,2.60
2022-12-06T10:24:49.392Z,2.47
2022-12-06T10:28:35.002Z,7.10
2022-12-06T10:32:00.335Z,2.78
2022-12-06T10:35:17.370Z,3.42
2022-12-06T10:38:29.580Z,4.07
2022-12-06T10:41:38.761Z,2.83
2022-12-06T10:44:48.469Z,2.63
2022-12-06T10:47:53.739Z,2.72
2022-12-06T10:51:03.365Z,3.13
2022-12-06T10:54:25.674Z,3.90
2022-12-06T10:57:46.637Z,2.28
2022-12-06T11:01:01.350Z,2.78
2022-12-06T11:04:14.110Z,2.70
2022-12-06T11:07:26.066Z,3.08
2022-12-06T11:10:31.733Z,2.17
2022-12-06T11:13:48.433Z,3.20
2022-12-06T11:17:00.274Z,3.78
2022-12-06T11:20:28.922Z,3.08
2022-12-06T11:23:39.559Z,4.22
2022-12-06T11:27:05.632Z,3.60
2022-12-06T11:30:20.285Z,2.80
2022-12-06T11:33:30.922Z,3.67
2022-12-06T11:36:33.699Z,4.95
2022-12-06T11:39:36.251Z,3.90
2022-12-06T11:42:38.634Z,4.40
2022-12-06T11:45:43.369Z,4.03
2022-12-06T11:48:45.847Z,4.07
2022-12-06T11:51:48.148Z,3.15
2022-12-06T11:54:57.609Z,3.95
2022-12-06T11:58:08.828Z,2.53
2022-12-06T12:01:14.259Z,2.50
2022-12-06T12:04:27.128Z,2.20
2022-12-06T12:07:29.888Z,2.67
2022-12-06T12:10:40.762Z,3.28
2022-12-06T12:13:52.129Z,3.07
2022-12-06T12:17:01.526Z,3.20
2022-12-06T12:20:08.633Z,4.18
2022-12-06T12:23:25.700Z,2.80
2022-12-06T12:26:41.434Z,4.25
2022-12-06T12:29:43.762Z,1.30
2022-12-06T12:32:47.775Z,2.33
2022-12-06T12:35:53.521Z,2.15
2022-12-06T12:39:00.972Z,2.00
2022-12-06T12:42:04.008Z,2.47
2022-12-06T12:45:17.440Z,4.20
2022-12-06T12:48:27.451Z,2.05
2022-12-06T12:51:37.570Z,5.15
2022-12-06T12:54:40.001Z,2.72
2022-12-06T12:57:45.398Z,3.65
2022-12-06T13:00:49.188Z,3.43
2022-12-06T13:03:56.420Z,2.75
2022-12-06T13:07:04.817Z,4.72
2022-12-06T13:10:32.046Z,6.85
2022-12-06T13:13:45.910Z,2.10
2022-12-06T13:16:52.500Z,4.93
2022-12-06T13:19:54.886Z,4.70
2022-12-06T13:23:20.328Z,2.78
2022-12-06T13:26:28.776Z,2.00
2022-12-06T13:29:39.132Z,1.95
2022-12-06T13:33:06.391Z,1.70
2022-12-06T13:36:12.179Z,2.97
2022-12-06T13:39:32.734Z,10.27
2022-12-06T13:42:37.980Z,3.10
2022-12-06T13:45:48.450Z,6.72
2022-12-06T13:49:04.297Z,2.40
2022-12-06T13:52:06.651Z,4.28
2022-12-06T13:55:24.417Z,3.25
2022-12-06T13:58:26.615Z,2.85
2022-12-06T14:01:55.127Z,3.35
2022-12-06T14:04:57.575Z,2.27
2022-12-06T14:08:00.066Z,1.95
2022-12-06T14:11:27.008Z,1.90
2022-12-06T14:14:30.453Z,1.60
2022-12-06T14:21:02.838Z,1.50
2022-12-06T14:24:05.477Z,2.30
2022-12-06T14:27:14.962Z,2.25
2022-12-06T14:30:25.886Z,3.03
2022-12-06T14:33:28.728Z,3.35
2022-12-06T14:36:35.151Z,3.30
2022-12-06T14:39:37.448Z,3.97
2022-12-06T14:42:57.999Z,2.78
2022-12-06T14:46:03.376Z,3.47
2022-12-06T14:49:24.372Z,3.35
2022-12-06T14:52:29.695Z,2.97
2022-12-06T14:55:38.711Z,3.80
2022-12-06T14:58:45.200Z,4.95
2022-12-06T15:01:49.887Z,3.50
2022-12-06T15:04:52.729Z,3.50
2022-12-06T15:07:55.328Z,3.70
2022-12-06T15:11:40.875Z,5.65
2022-12-06T15:14:49.580Z,3.97
2022-12-06T15:17:52.039Z,4.03
2022-12-06T15:20:55.166Z,3.95
2022-12-06T15:23:57.387Z,4.27
2022-12-06T15:26:59.704Z,6.82
2022-12-06T15:30:02.505Z,12.15
2022-12-06T15:33:05.158Z,10.55
2022-12-06T15:36:16.802Z,6.78
2022-12-06T15:39:19.186Z,6.07
2022-12-06T15:42:23.854Z,4.30
2022-12-06T15:45:26.095Z,6.32
2022-12-06T15:48:30.077Z,6.07
2022-12-06T15:51:32.459Z,5.75
2022-12-06T15:54:34.902Z,6.73
2022-12-06T15:57:37.501Z,9.27
2022-12-06T16:00:39.801Z,9.23
2022-12-06T16:03:42.151Z,4.07
2022-12-06T16:06:45.151Z,6.10
2022-12-06T16:09:48.175Z,7.03
2022-12-06T16:13:09.034Z,6.25
2022-12-06T16:16:11.813Z,6.35
2022-12-06T16:19:14.104Z,5.07
2022-12-06T16:22:16.338Z,5.43
2022-12-06T16:25:18.634Z,7.00
2022-12-06T16:28:20.953Z,6.80
2022-12-06T16:31:24.127Z,9.18
2022-12-06T16:34:28.567Z,9.15
2022-12-06T16:37:30.823Z,19.58
2022-12-06T16:40:34.013Z,20.40
2022-12-06T16:43:36.446Z,36.08
2022-12-06T16:46:39.364Z,24.05
2022-12-06T16:49:46.838Z,23.80
2022-12-06T16:52:52.042Z,18.85
2022-12-06T16:55:54.295Z,52.73
2022-12-06T16:58:56.871Z,18.10
2022-12-06T17:01:59.573Z,12.27
2022-12-06T17:05:06.285Z,8.63
2022-12-06T17:08:09.008Z,7.28
2022-12-06T17:11:38.826Z,10.17
2022-12-06T17:14:42.166Z,18.30
2022-12-06T17:17:44.940Z,13.13
2022-12-06T17:20:47.145Z,10.43
2022-12-06T17:23:52.286Z,8.13
2022-12-06T17:26:55.204Z,8.53
2022-12-06T17:29:57.436Z,7.68
2022-12-06T17:32:59.651Z,5.70
2022-12-06T17:36:10.147Z,6.53
2022-12-06T17:39:15.473Z,9.40
2022-12-06T17:42:36.286Z,6.50
2022-12-06T17:45:38.617Z,5.10
2022-12-06T17:48:44.555Z,4.25
2022-12-06T17:51:50.254Z,7.03
2022-12-06T17:54:52.470Z,16.60
2022-12-06T17:57:54.792Z,4.90
2022-12-06T18:00:58.872Z,4.00
2022-12-06T18:04:02.935Z,4.40
2022-12-06T18:07:05.286Z,4.30
2022-12-06T18:10:08.328Z,3.78
2022-12-06T18:13:10.704Z,3.77
2022-12-06T18:16:18.387Z,4.28
2022-12-06T18:19:21.808Z,4.03
2022-12-06T18:22:24.086Z,3.08
2022-12-06T18:25:26.345Z,5.40
2022-12-06T18:28:28.553Z,3.30
2022-12-06T18:31:34.293Z,5.10
2022-12-06T18:34:37.041Z,5.95
2022-12-06T18:37:39.920Z,5.93
2022-12-06T18:40:43.176Z,9.52
2022-12-06T18:43:45.748Z,9.93
2022-12-06T18:46:48.130Z,7.95
2022-12-06T18:49:50.353Z,9.45
2022-12-06T18:52:52.592Z,6.38
2022-12-06T18:55:54.975Z,9.73
2022-12-06T18:58:59.275Z,9.07
2022-12-06T19:02:01.679Z,8.15
2022-12-06T19:05:04.507Z,7.80
2022-12-06T19:08:07.003Z,7.50
2022-12-06T19:11:17.771Z,7.35
2022-12-06T19:14:20.424Z,6.20
2022-12-06T19:17:22.754Z,7.68
2022-12-06T19:20:25.053Z,7.57
2022-12-06T19:23:28.832Z,8.20
2022-12-06T19:26:31.300Z,9.20
2022-12-06T19:29:35.731Z,7.23
